Latest Coastal Weather Observations for Horn Island

IDQ60701

Issued at 2:15 pm EST Tuesday 2 September 2014 (issued every 10 minutes, with the page automatically refreshed every 10 minutes)

About coastal observations | Map of coastal stations | Coastal observations for QLD | Marine services | Other Formats
Station Details ID: 027058 Name: HORN ISLAND Lat: -10.58 Lon: 142.29 Height: 4.0 m
Data from the previous 72 hours. | See also: Recent months at Horn Island
Date/Time
EST
Temp

°C
Wind Pressure Rain
since 9am
mm
Weather Cloud Vis
km
Sea
Height
m
Swell
Dir
 
Speed
knots
Gust
knots
hPa Trend Height
m
Period
s
Dir
02/02:00pm 28.7 ESE 19 27 1012.0 - 0.0 - - 10 - - - -
02/01:30pm 29.1 ESE 18 26 1012.3 - 0.0 - - 10 - - - -
02/01:00pm 28.7 ESE 20 27 1012.7 - 0.0 - - 10 - - - -
02/12:30pm 28.3 ESE 19 27 1013.2 - 0.0 - - 10 - - - -
02/12:00pm 27.7 ESE 18 25 1013.6 - 0.0 - - 10 - - - -
02/11:30am 28.2 ESE 22 27 1014.1 - 0.0 - - 10 - - - -
02/11:00am 28.1 ESE 20 27 1014.6 - 0.0 - Partly cloudy 10 - - - -
02/10:30am 28.7 ESE 17 26 1014.9 - 0.0 - - 10 - - - -
02/10:00am 27.6 ESE 15 19 1015.0 - 0.0 - - 10 - - - -
02/09:30am 26.8 SE 15 21 1015.0 - 0.0 - Partly cloudy 10 - - - -
02/09:00am 25.8 SE 14 20 1015.1 - 0.0 - Cloudy 10 - - - -
02/08:30am 25.4 SE 14 19 1014.8 - 0.0 - Partly cloudy 10 - - - -
02/08:00am 25.3 SE 13 20 1014.5 - 0.0 - Partly cloudy 10 - - - -
02/07:30am 24.9 SE 13 17 1014.4 - 0.0 - Partly cloudy 10 - - - -
02/07:00am 24.1 SE 13 20 1014.0 - 0.0 - Partly cloudy 10 - - - -
02/06:30am 24.0 SE 13 18 1013.3 - 0.0 - - 10 - - - -
02/06:00am 24.1 SE 12 19 1013.2 - 0.0 - - 10 - - - -
02/05:30am 24.3 SE 12 15 1013.1 - 0.0 - Partly cloudy 10 - - - -
02/05:00am 24.5 SE 12 17 1012.8 - 0.0 - Cloudy 10 - - - -
02/04:30am 24.4 SE 12 17 1012.6 - 0.0 - Partly cloudy 10 - - - -
02/04:00am 24.3 SE 13 18 1012.5 - 0.0 - Partly cloudy 10 - - - -
02/03:30am 24.5 SE 14 19 1012.7 - 0.0 - Partly cloudy 10 - - - -
02/03:00am 24.3 SE 13 18 1012.8 - 0.0 - Cloudy 10 - - - -
02/02:30am 24.2 SE 11 16 1012.8 - 0.0 - Partly cloudy 10 - - - -
02/02:00am 24.3 SE 11 15 1012.9 - 0.0 - Partly cloudy 10 - - - -
02/01:30am 24.3 SE 13 17 1013.2 - 0.0 - Partly cloudy 10 - - - -
02/01:00am 24.4 SE 14 19 1013.4 - 0.0 - Partly cloudy 10 - - - -
02/12:30am 24.4 SE 12 18 1013.9 - 0.0 - Partly cloudy 10 - - - -
02/12:00am 24.5 SE 13 19 1014.1 - 0.0 - Cloudy 9 - - - -
 
Date/Time
EST
Temp

°C
Wind Pressure Rain
since 9am
mm
Weather Cloud Vis
km
Sea
Height
m
Swell
Dir
 
Speed
knots
Gust
knots
hPa Trend Height
m
Period
s
Dir
01/11:30pm 24.6 SE 14 21 1014.1 - 0.0 - Partly cloudy 10 - - - -
01/11:00pm 24.7 SE 14 20 1014.1 - 0.0 - Partly cloudy 10 - - - -
01/10:30pm 24.7 ESE 14 22 1014.3 - 0.0 - Partly cloudy 10 - - - -
01/10:00pm 24.5 SE 13 19 1014.3 - 0.0 - Partly cloudy 10 - - - -
01/09:30pm 24.5 SE 15 22 1013.9 - 0.0 - - 10 - - - -
01/09:00pm 24.4 SE 14 20 1013.8 - 0.0 - - 10 - - - -
01/08:30pm 24.4 SE 15 21 1013.6 - 0.0 - - 10 - - - -
01/08:00pm 24.5 SE 12 19 1013.2 - 0.0 - Partly cloudy 10 - - - -
01/07:30pm 24.6 SE 14 20 1012.9 - 0.0 - Partly cloudy 10 - - - -
01/07:00pm 24.6 SE 13 18 1012.5 - 0.0 - Partly cloudy 10 - - - -
01/06:30pm 24.5 SE 13 18 1012.2 - 0.0 - Partly cloudy 10 - - - -
01/06:00pm 24.5 SE 16 25 1012.2 - 0.0 - Cloudy 10 - - - -
01/05:30pm 25.3 ESE 19 26 1011.7 - 0.0 - Partly cloudy 10 - - - -
01/05:00pm 26.8 ESE 17 24 1011.5 - 0.0 - Cloudy 10 - - - -
01/04:30pm 27.2 ESE 18 24 1011.3 - 0.0 - Cloudy 10 - - - -
01/04:00pm 27.3 ESE 19 26 1011.3 - 0.0 - Cloudy 10 - - - -
01/03:30pm 27.9 ESE 19 26 1011.2 - 0.0 - Partly cloudy 10 - - - -
01/03:00pm 27.8 ESE 20 26 1011.3 - 0.0 - Cloudy 10 - - - -
01/02:30pm 28.3 ESE 21 28 1011.6 - 0.0 - Cloudy 10 - - - -
01/02:00pm 28.7 ESE 20 26 1011.8 - 0.0 - Partly cloudy 10 - - - -
01/01:30pm 28.8 ESE 20 27 1012.0 - 0.0 - Partly cloudy 10 - - - -
01/01:00pm 29.0 ESE 18 25 1012.2 - 0.0 - - 10 - - - -
01/12:30pm 28.9 SE 19 26 1012.7 - 0.0 - - 10 - - - -
01/12:00pm 28.4 SE 16 23 1013.1 - 0.0 - - 10 - - - -
01/11:30am 27.6 SE 17 23 1013.5 - 0.0 - Partly cloudy 10 - - - -
01/11:00am 26.5 ESE 18 27 1014.0 - 0.0 - Partly cloudy 10 - - - -
01/10:36am 26.4 ESE 18 28 1014.2 - 0.0 - Partly cloudy 10 - - - -
01/10:30am 28.0 ESE 18 24 1014.3 - 0.0 - Partly cloudy 10 - - - -
01/10:00am 26.7 SE 18 24 1014.5 - 0.0 - Partly cloudy 10 - - - -
01/09:30am 26.7 SE 16 21 1014.2 - 0.0 - Partly cloudy 10 - - - -
01/09:00am 26.8 SE 13 18 1014.1 - 0.0 - Cloudy 10 - - - -
01/08:30am 25.7 SE 14 18 1013.9 - 0.0 - Partly cloudy 10 - - - -
01/08:00am 25.2 SE 11 15 1013.7 - 0.0 - Partly cloudy 10 - - - -
01/07:30am 24.8 SE 12 17 1013.6 - 0.0 - Partly cloudy 10 - - - -
01/07:00am 24.6 SE 12 17 1013.2 - 0.0 - Partly cloudy 10 - - - -
01/06:30am 24.4 SE 10 14 1012.8 - 0.0 - Partly cloudy 10 - - - -
01/06:00am 24.3 SE 9 12 1012.6 - 0.0 - Cloudy 10 - - - -
01/05:30am 24.2 SE 7 11 1012.5 - 0.0 - Partly cloudy 10 - - - -
01/05:00am 24.2 SE 9 14 1012.5 - 0.0 - Partly cloudy 10 - - - -
01/04:30am 24.1 SSE 8 11 1012.5 - 0.0 - Partly cloudy 10 - - - -
01/04:00am 23.8 SSE 7 11 1012.3 - 0.0 - Partly cloudy 10 - - - -
01/03:30am 23.9 SSE 8 11 1012.1 - 0.0 - Partly cloudy 10 - - - -
01/03:00am 23.9 SSE 9 13 1012.2 - 0.0 - Cloudy 10 - - - -
01/02:30am 24.1 SSE 8 13 1012.4 - 0.0 - Partly cloudy 10 - - - -
01/02:00am 24.0 SE 8 13 1012.4 - 0.0 - Partly cloudy 10 - - - -
01/01:30am 24.0 SE 9 14 1012.6 - 0.0 - Partly cloudy 10 - - - -
01/01:00am 24.1 SE 11 15 1012.9 - 0.0 - Partly cloudy 10 - - - -
01/12:30am 24.3 ESE 13 18 1013.0 - 0.0 - Partly cloudy 10 - - - -
01/12:00am 24.3 ESE 13 18 1013.0 - 0.0 - Cloudy 10 - - - -
 
Date/Time
EST
Temp

°C
Wind Pressure Rain
since 9am
mm
Weather Cloud Vis
km
Sea
Height
m
Swell
Dir
 
Speed
knots
Gust
knots
hPa Trend Height
m
Period
s
Dir
31/11:30pm 24.3 ESE 14 20 1013.1 - 0.0 - - 10 - - - -
31/11:00pm 24.4 ESE 14 20 1013.1 - 0.0 - Partly cloudy 10 - - - -
31/10:30pm 24.5 ESE 14 19 1013.1 - 0.0 - - 9 - - - -
31/10:00pm 24.5 SE 15 21 1013.1 - 0.0 - - 10 - - - -
31/09:30pm 24.6 SE 15 21 1013.0 - 0.0 - Partly cloudy 10 - - - -
31/09:00pm 24.8 SE 16 21 1012.9 - 0.0 - Cloudy 10 - - - -
31/08:30pm 24.8 ESE 14 19 1012.7 - 0.0 - Partly cloudy 10 - - - -
31/08:00pm 24.8 SE 14 22 1012.2 - 0.0 - Partly cloudy 10 - - - -
31/07:30pm 24.8 SE 13 19 1011.9 - 0.0 - Partly cloudy 10 - - - -
31/07:00pm 24.9 ESE 15 20 1011.5 - 0.0 - - 10 - - - -
31/06:30pm 25.2 ESE 13 18 1011.3 - 0.0 - - 10 - - - -
31/06:00pm 25.5 ESE 16 22 1010.9 - 0.0 - Cloudy 10 - - - -
31/05:30pm 26.2 ESE 16 21 1010.7 - 0.0 - Partly cloudy 10 - - - -
31/05:00pm 27.0 ESE 17 22 1010.5 - 0.0 - - 8 - - - -
31/04:30pm 26.9 ESE 18 24 1010.3 - 0.0 - Partly cloudy 10 - - - -
31/04:00pm 26.9 ESE 18 24 1010.3 - 0.0 - Partly cloudy 10 - - - -
31/03:30pm 28.0 ESE 18 25 1010.1 - 0.0 - Partly cloudy 10 - - - -
31/03:00pm 27.8 ESE 19 25 1010.2 - 0.0 - - 10 - - - -
31/02:30pm 28.9 ESE 19 25 1010.4 - 0.0 - Partly cloudy 10 - - - -
31/02:00pm 28.2 ESE 19 24 1010.7 - 0.0 - Partly cloudy 10 - - - -
31/01:30pm 28.6 ESE 19 24 1011.1 - 0.0 - Partly cloudy 10 - - - -
31/01:00pm 28.8 E 20 25 1011.5 - 0.0 - Partly cloudy 10 - - - -
31/12:30pm 28.4 ESE 18 24 1011.9 - 0.0 - - 10 - - - -
31/12:00pm 28.9 ESE 19 25 1012.4 - 0.0 - - 10 - - - -
31/11:30am 28.1 ESE 18 23 1012.9 - 0.0 - - 10 - - - -
31/11:00am 27.7 ESE 20 25 1013.4 - 0.0 - Partly cloudy 10 - - - -
31/10:30am 28.4 ESE 16 22 1013.7 - 0.0 - Partly cloudy 10 - - - -
31/10:00am 27.5 SE 15 21 1013.9 - 0.0 - Partly cloudy 10 - - - -
31/09:30am 26.0 SE 15 21 1014.0 - 0.0 - Partly cloudy 10 - - - -
31/09:00am 26.3 SE 14 21 1014.1 - 0.0 - Cloudy 10 - - - -
31/08:30am 25.6 SE 12 16 1014.0 - 0.0 - - 10 - - - -
31/08:00am 25.0 SE 13 17 1013.6 - 0.0 - - 10 - - - -
31/07:30am 24.0 SE 9 13 1013.5 - 0.0 - Partly cloudy 10 - - - -
31/07:00am 23.3 SSE 9 12 1013.1 - 0.0 - Partly cloudy 10 - - - -
31/06:30am 23.1 SSE 8 13 1012.8 - 0.0 - - 10 - - - -
31/06:00am 23.1 SSE 8 12 1012.4 - 0.0 - - 10 - - - -
31/05:30am 23.2 SSE 8 12 1012.1 - 0.0 - Partly cloudy 10 - - - -
31/05:00am 23.3 SSE 8 11 1011.9 - 0.0 - - 10 - - - -
31/04:30am 23.4 SSE 9 13 1011.9 - 0.0 - - 10 - - - -
31/04:00am 23.4 SE 12 17 1012.0 - 0.0 - Partly cloudy 10 - - - -
31/03:30am 23.2 ESE 13 19 1012.1 - 0.0 - Partly cloudy 10 - - - -
31/03:00am 23.3 SE 10 14 1012.2 - 0.0 - Cloudy 10 - - - -
31/02:49am 23.1 SE 10 17 1012.2 - 0.0 - Partly cloudy 10 - - - -
31/02:37am 23.3 SE 10 15 1012.2 - 0.0 - Partly cloudy 5 - - - -
31/02:30am 23.7 SE 10 15 1012.2 - 0.0 - Partly cloudy 9 - - - -
31/02:00am 23.9 SE 11 15 1012.3 - 0.0 - Partly cloudy 10 - - - -
31/01:30am 24.0 SE 10 17 1012.7 - 0.0 - Partly cloudy 10 - - - -
31/01:00am 23.7 SE 10 15 1012.9 - 0.0 - Partly cloudy 10 - - - -
31/12:30am 23.6 ESE 12 15 1013.0 - 0.0 - Partly cloudy 10 - - - -
31/12:00am 23.9 SE 10 15 1013.3 - 0.0 - Cloudy 10 - - - -
 
Date/Time
EST
Temp

°C
Wind Pressure Rain
since 9am
mm
Weather Cloud Vis
km
Sea
Height
m
Swell
Dir
 
Speed
knots
Gust
knots
hPa Trend Height
m
Period
s
Dir
30/11:30pm 23.8 SE 10 15 1013.6 - 0.0 - Partly cloudy 10 - - - -
30/11:00pm 23.8 SE 15 22 1013.8 - 0.0 - Partly cloudy 10 - - - -
30/10:30pm 23.9 SE 12 17 1013.9 - 0.0 - Partly cloudy 10 - - - -
30/10:00pm 23.6 SSE 9 12 1014.0 - 0.0 - Partly cloudy 10 - - - -
30/09:30pm 23.9 SE 12 18 1013.9 - 0.0 - Partly cloudy 10 - - - -
30/09:00pm 24.2 SE 12 17 1014.0 - 0.0 - Cloudy 10 - - - -
30/08:30pm 24.3 ESE 11 13 1013.6 - 0.0 - Partly cloudy 10 - - - -
30/08:01pm 23.7 ESE 13 17 1013.5 - 0.0 - Partly cloudy 10 - - - -
30/08:00pm 23.7 SE 13 17 1013.5 - 0.0 - Partly cloudy 10 - - - -
30/07:43pm 24.0 ESE 16 26 1013.2 - 0.0 - Partly cloudy 5 - - - -
30/07:42pm 24.2 ESE 15 26 1013.2 - 0.0 - Partly cloudy 6 - - - -
30/07:30pm 25.1 ESE 13 16 1012.9 - 0.0 - Partly cloudy 10 - - - -
30/07:00pm 25.2 SE 12 17 1012.5 - 0.0 - Partly cloudy 10 - - - -
30/06:30pm 25.2 ESE 13 17 1012.2 - 0.0 - - 10 - - - -
30/06:00pm 25.8 ESE 14 22 1011.9 - 0.0 - - 9 - - - -
30/05:30pm 26.4 ESE 14 19 1011.7 - 0.0 - - 10 - - - -
30/05:00pm 26.7 ESE 16 21 1011.6 - 0.0 - - 10 - - - -
30/04:30pm 26.7 ESE 17 22 1011.3 - 0.0 - - 10 - - - -
30/04:00pm 27.0 ESE 17 22 1011.3 - 0.0 - - 10 - - - -
30/03:30pm 27.8 ESE 17 22 1011.1 - 0.0 - - 10 - - - -
30/03:00pm 27.8 ESE 16 21 1011.3 - 0.0 - - 10 - - - -
30/02:30pm 27.6 ESE 17 23 1011.6 - 0.0 - - 10 - - - -

Other Formats:

Comma delimited format used in spreadsheet applications
http://www.bom.gov.au/fwo/IDQ60701/IDQ60701.94174.axf

JavaScript Object Notation format (JSON) in row-major order
http://www.bom.gov.au/fwo/IDQ60701/IDQ60701.94174.json